sensor_id;sensor_type;location;lat;lon;timestamp;P1;durP1;ratioP1;P2;durP2;ratioP2
75311;SDS011;63906;55.686;37.532;2023-08-06T00:03:31;6.13;;;4.25;;
75311;SDS011;63906;55.686;37.532;2023-08-06T00:08:32;5.33;;;3.90;;
75311;SDS011;63906;55.686;37.532;2023-08-06T00:13:32;4.57;;;3.80;;
75311;SDS011;63906;55.686;37.532;2023-08-06T00:18:33;3.33;;;2.88;;
75311;SDS011;63906;55.686;37.532;2023-08-06T00:23:33;3.63;;;2.67;;
75311;SDS011;63906;55.686;37.532;2023-08-06T00:28:34;2.80;;;2.60;;
75311;SDS011;63906;55.686;37.532;2023-08-06T00:33:34;2.63;;;2.08;;
75311;SDS011;63906;55.686;37.532;2023-08-06T00:38:35;2.92;;;2.20;;
75311;SDS011;63906;55.686;37.532;2023-08-06T00:43:35;2.53;;;2.10;;
75311;SDS011;63906;55.686;37.532;2023-08-06T00:48:36;2.40;;;1.92;;
75311;SDS011;63906;55.686;37.532;2023-08-06T00:53:37;2.28;;;2.00;;
75311;SDS011;63906;55.686;37.532;2023-08-06T00:58:39;2.38;;;1.70;;
75311;SDS011;63906;55.686;37.532;2023-08-06T01:03:39;1.88;;;1.60;;
75311;SDS011;63906;55.686;37.532;2023-08-06T01:13:47;2.30;;;1.80;;
75311;SDS011;63906;55.686;37.532;2023-08-06T01:18:50;1.52;;;1.42;;
75311;SDS011;63906;55.686;37.532;2023-08-06T01:23:50;1.70;;;1.40;;
75311;SDS011;63906;55.686;37.532;2023-08-06T01:33:51;2.00;;;1.60;;
75311;SDS011;63906;55.686;37.532;2023-08-06T01:38:54;2.30;;;2.10;;
75311;SDS011;63906;55.686;37.532;2023-08-06T01:43:54;2.55;;;1.75;;
75311;SDS011;63906;55.686;37.532;2023-08-06T01:48:55;2.72;;;1.98;;
75311;SDS011;63906;55.686;37.532;2023-08-06T01:53:55;2.30;;;1.70;;
75311;SDS011;63906;55.686;37.532;2023-08-06T01:58:56;2.13;;;1.65;;
75311;SDS011;63906;55.686;37.532;2023-08-06T02:03:56;2.20;;;1.80;;
75311;SDS011;63906;55.686;37.532;2023-08-06T02:08:57;2.30;;;1.70;;
75311;SDS011;63906;55.686;37.532;2023-08-06T02:13:57;2.65;;;2.15;;
75311;SDS011;63906;55.686;37.532;2023-08-06T02:18:58;2.63;;;2.20;;
75311;SDS011;63906;55.686;37.532;2023-08-06T02:23:58;2.55;;;2.28;;
75311;SDS011;63906;55.686;37.532;2023-08-06T02:28:59;2.47;;;2.00;;
75311;SDS011;63906;55.686;37.532;2023-08-06T02:33:59;2.67;;;2.25;;
75311;SDS011;63906;55.686;37.532;2023-08-06T02:39:00;2.38;;;1.92;;
75311;SDS011;63906;55.686;37.532;2023-08-06T02:44:00;2.03;;;1.70;;
75311;SDS011;63906;55.686;37.532;2023-08-06T02:49:01;2.17;;;1.95;;
75311;SDS011;63906;55.686;37.532;2023-08-06T02:54:01;2.33;;;1.80;;
75311;SDS011;63906;55.686;37.532;2023-08-06T02:59:02;2.22;;;2.03;;
75311;SDS011;63906;55.686;37.532;2023-08-06T03:04:02;1.90;;;1.70;;
75311;SDS011;63906;55.686;37.532;2023-08-06T03:09:03;2.00;;;1.80;;
75311;SDS011;63906;55.686;37.532;2023-08-06T03:14:03;1.60;;;1.50;;
75311;SDS011;63906;55.686;37.532;2023-08-06T03:19:04;1.90;;;1.75;;
75311;SDS011;63906;55.686;37.532;2023-08-06T03:24:04;1.55;;;1.25;;
75311;SDS011;63906;55.686;37.532;2023-08-06T03:29:05;1.65;;;1.10;;
75311;SDS011;63906;55.686;37.532;2023-08-06T03:34:05;1.00;;;0.80;;
75311;SDS011;63906;55.686;37.532;2023-08-06T03:39:06;0.82;;;0.80;;
75311;SDS011;63906;55.686;37.532;2023-08-06T03:44:07;1.23;;;1.13;;
75311;SDS011;63906;55.686;37.532;2023-08-06T03:49:07;1.47;;;1.23;;
75311;SDS011;63906;55.686;37.532;2023-08-06T03:54:08;1.48;;;1.10;;
75311;SDS011;63906;55.686;37.532;2023-08-06T03:59:08;1.10;;;1.00;;
75311;SDS011;63906;55.686;37.532;2023-08-06T04:04:09;1.77;;;1.40;;
75311;SDS011;63906;55.686;37.532;2023-08-06T04:09:09;2.70;;;1.40;;
75311;SDS011;63906;55.686;37.532;2023-08-06T04:14:10;2.67;;;1.40;;
75311;SDS011;63906;55.686;37.532;2023-08-06T04:19:10;2.13;;;1.48;;
75311;SDS011;63906;55.686;37.532;2023-08-06T04:24:11;2.17;;;1.50;;
75311;SDS011;63906;55.686;37.532;2023-08-06T04:29:11;2.07;;;1.70;;
75311;SDS011;63906;55.686;37.532;2023-08-06T04:34:12;2.67;;;1.90;;
75311;SDS011;63906;55.686;37.532;2023-08-06T04:39:12;2.30;;;2.00;;
75311;SDS011;63906;55.686;37.532;2023-08-06T04:44:13;3.00;;;1.83;;
75311;SDS011;63906;55.686;37.532;2023-08-06T04:49:13;2.22;;;2.03;;
75311;SDS011;63906;55.686;37.532;2023-08-06T04:54:13;2.60;;;2.10;;
75311;SDS011;63906;55.686;37.532;2023-08-06T04:59:18;3.60;;;2.60;;
75311;SDS011;63906;55.686;37.532;2023-08-06T05:04:19;3.83;;;2.72;;
75311;SDS011;63906;55.686;37.532;2023-08-06T05:09:19;3.30;;;2.50;;
75311;SDS011;63906;55.686;37.532;2023-08-06T05:14:20;4.03;;;2.90;;
75311;SDS011;63906;55.686;37.532;2023-08-06T05:19:20;2.87;;;2.57;;
75311;SDS011;63906;55.686;37.532;2023-08-06T05:24:21;3.67;;;2.67;;
75311;SDS011;63906;55.686;37.532;2023-08-06T05:29:21;3.83;;;3.20;;
75311;SDS011;63906;55.686;37.532;2023-08-06T05:34:22;5.15;;;3.28;;
75311;SDS011;63906;55.686;37.532;2023-08-06T05:39:22;3.93;;;3.10;;
75311;SDS011;63906;55.686;37.532;2023-08-06T05:44:23;4.17;;;3.10;;
75311;SDS011;63906;55.686;37.532;2023-08-06T05:49:23;4.93;;;3.10;;
75311;SDS011;63906;55.686;37.532;2023-08-06T05:54:24;3.33;;;2.80;;
75311;SDS011;63906;55.686;37.532;2023-08-06T05:59:24;3.75;;;3.20;;
75311;SDS011;63906;55.686;37.532;2023-08-06T06:04:25;4.50;;;3.53;;
75311;SDS011;63906;55.686;37.532;2023-08-06T06:09:25;3.75;;;2.95;;
75311;SDS011;63906;55.686;37.532;2023-08-06T06:14:26;4.40;;;3.28;;
75311;SDS011;63906;55.686;37.532;2023-08-06T06:19:26;4.22;;;2.97;;
75311;SDS011;63906;55.686;37.532;2023-08-06T06:24:27;3.50;;;2.40;;
75311;SDS011;63906;55.686;37.532;2023-08-06T06:29:27;3.70;;;3.20;;
75311;SDS011;63906;55.686;37.532;2023-08-06T06:34:28;2.97;;;2.63;;
75311;SDS011;63906;55.686;37.532;2023-08-06T06:39:28;4.15;;;2.60;;
75311;SDS011;63906;55.686;37.532;2023-08-06T06:44:29;4.25;;;3.28;;
75311;SDS011;63906;55.686;37.532;2023-08-06T06:49:29;4.53;;;3.50;;
75311;SDS011;63906;55.686;37.532;2023-08-06T06:54:30;3.53;;;3.13;;
75311;SDS011;63906;55.686;37.532;2023-08-06T06:59:30;3.10;;;2.80;;
75311;SDS011;63906;55.686;37.532;2023-08-06T07:04:31;3.50;;;3.10;;
75311;SDS011;63906;55.686;37.532;2023-08-06T07:09:31;4.05;;;3.25;;
75311;SDS011;63906;55.686;37.532;2023-08-06T07:14:32;6.47;;;3.83;;
75311;SDS011;63906;55.686;37.532;2023-08-06T07:19:32;5.25;;;3.72;;
75311;SDS011;63906;55.686;37.532;2023-08-06T07:24:33;5.82;;;3.60;;
75311;SDS011;63906;55.686;37.532;2023-08-06T07:29:33;9.57;;;4.07;;
75311;SDS011;63906;55.686;37.532;2023-08-06T07:34:34;6.75;;;4.93;;
75311;SDS011;63906;55.686;37.532;2023-08-06T07:39:34;5.30;;;4.75;;
75311;SDS011;63906;55.686;37.532;2023-08-06T07:44:35;5.45;;;4.47;;
75311;SDS011;63906;55.686;37.532;2023-08-06T07:49:35;5.90;;;4.30;;
75311;SDS011;63906;55.686;37.532;2023-08-06T07:54:36;6.95;;;4.70;;
75311;SDS011;63906;55.686;37.532;2023-08-06T07:59:36;5.13;;;4.60;;
75311;SDS011;63906;55.686;37.532;2023-08-06T08:04:37;5.93;;;5.07;;
75311;SDS011;63906;55.686;37.532;2023-08-06T08:09:37;6.13;;;4.75;;
75311;SDS011;63906;55.686;37.532;2023-08-06T08:14:38;5.03;;;4.57;;
75311;SDS011;63906;55.686;37.532;2023-08-06T08:19:39;5.38;;;4.88;;
75311;SDS011;63906;55.686;37.532;2023-08-06T08:24:40;5.30;;;4.30;;
75311;SDS011;63906;55.686;37.532;2023-08-06T08:34:41;5.23;;;4.77;;
75311;SDS011;63906;55.686;37.532;2023-08-06T08:39:44;5.32;;;4.82;;
75311;SDS011;63906;55.686;37.532;2023-08-06T08:49:45;5.00;;;4.50;;
75311;SDS011;63906;55.686;37.532;2023-08-06T08:54:47;5.47;;;4.97;;
75311;SDS011;63906;55.686;37.532;2023-08-06T08:59:51;5.10;;;4.60;;
75311;SDS011;63906;55.686;37.532;2023-08-06T09:09:53;4.53;;;4.13;;
75311;SDS011;63906;55.686;37.532;2023-08-06T09:14:54;6.05;;;4.47;;
75311;SDS011;63906;55.686;37.532;2023-08-06T09:24:55;5.80;;;4.73;;
75311;SDS011;63906;55.686;37.532;2023-08-06T09:29:57;4.57;;;3.90;;
75311;SDS011;63906;55.686;37.532;2023-08-06T09:34:57;8.00;;;5.03;;
75311;SDS011;63906;55.686;37.532;2023-08-06T09:45:06;5.03;;;4.50;;
75311;SDS011;63906;55.686;37.532;2023-08-06T09:50:14;5.25;;;4.22;;
75311;SDS011;63906;55.686;37.532;2023-08-06T09:55:18;5.20;;;4.70;;
75311;SDS011;63906;55.686;37.532;2023-08-06T10:00:20;6.25;;;4.43;;
75311;SDS011;63906;55.686;37.532;2023-08-06T10:10:21;5.40;;;4.10;;
75311;SDS011;63906;55.686;37.532;2023-08-06T10:15:26;5.07;;;4.57;;
75311;SDS011;63906;55.686;37.532;2023-08-06T10:20:36;4.95;;;4.45;;
75311;SDS011;63906;55.686;37.532;2023-08-06T10:25:40;4.22;;;3.83;;
75311;SDS011;63906;55.686;37.532;2023-08-06T10:30:43;4.43;;;3.55;;
75311;SDS011;63906;55.686;37.532;2023-08-06T10:35:45;4.55;;;4.10;;
75311;SDS011;63906;55.686;37.532;2023-08-06T10:45:53;5.18;;;3.63;;
75311;SDS011;63906;55.686;37.532;2023-08-06T10:50:54;4.22;;;3.50;;
75311;SDS011;63906;55.686;37.532;2023-08-06T10:55:56;5.30;;;3.83;;
75311;SDS011;63906;55.686;37.532;2023-08-06T11:00:57;3.90;;;3.60;;
75311;SDS011;63906;55.686;37.532;2023-08-06T11:05:59;4.43;;;3.70;;
75311;SDS011;63906;55.686;37.532;2023-08-06T11:11:10;3.45;;;3.15;;
75311;SDS011;63906;55.686;37.532;2023-08-06T11:16:17;3.30;;;3.00;;
75311;SDS011;63906;55.686;37.532;2023-08-06T11:21:20;2.80;;;2.60;;
75311;SDS011;63906;55.686;37.532;2023-08-06T11:26:21;3.40;;;3.10;;
75311;SDS011;63906;55.686;37.532;2023-08-06T11:31:23;3.67;;;3.38;;
75311;SDS011;63906;55.686;37.532;2023-08-06T11:36:34;3.28;;;2.97;;
75311;SDS011;63906;55.686;37.532;2023-08-06T11:41:39;3.95;;;3.50;;
75311;SDS011;63906;55.686;37.532;2023-08-06T11:46:57;3.47;;;3.17;;
75311;SDS011;63906;55.686;37.532;2023-08-06T11:52:06;3.97;;;3.00;;
75311;SDS011;63906;55.686;37.532;2023-08-06T11:57:09;4.25;;;3.50;;
75311;SDS011;63906;55.686;37.532;2023-08-06T12:02:11;3.50;;;3.22;;
75311;SDS011;63906;55.686;37.532;2023-08-06T12:07:11;3.35;;;3.05;;
75311;SDS011;63906;55.686;37.532;2023-08-06T12:12:12;3.30;;;3.00;;
75311;SDS011;63906;55.686;37.532;2023-08-06T12:17:12;3.25;;;3.05;;
75311;SDS011;63906;55.686;37.532;2023-08-06T12:22:13;3.35;;;3.05;;
75311;SDS011;63906;55.686;37.532;2023-08-06T12:27:14;2.70;;;2.50;;
75311;SDS011;63906;55.686;37.532;2023-08-06T12:32:18;3.78;;;3.45;;
75311;SDS011;63906;55.686;37.532;2023-08-06T12:37:19;3.10;;;2.90;;
75311;SDS011;63906;55.686;37.532;2023-08-06T12:42:20;3.22;;;2.53;;
75311;SDS011;63906;55.686;37.532;2023-08-06T12:47:20;4.15;;;2.90;;
75311;SDS011;63906;55.686;37.532;2023-08-06T12:52:21;3.35;;;2.78;;
75311;SDS011;63906;55.686;37.532;2023-08-06T12:57:21;3.20;;;3.00;;
75311;SDS011;63906;55.686;37.532;2023-08-06T13:02:22;3.83;;;3.47;;
75311;SDS011;63906;55.686;37.532;2023-08-06T13:07:22;3.60;;;3.00;;
75311;SDS011;63906;55.686;37.532;2023-08-06T13:12:23;3.88;;;3.20;;
75311;SDS011;63906;55.686;37.532;2023-08-06T13:17:24;3.92;;;3.58;;
75311;SDS011;63906;55.686;37.532;2023-08-06T13:22:24;3.47;;;3.20;;
75311;SDS011;63906;55.686;37.532;2023-08-06T13:27:25;4.78;;;3.25;;
75311;SDS011;63906;55.686;37.532;2023-08-06T13:32:25;3.63;;;3.33;;
75311;SDS011;63906;55.686;37.532;2023-08-06T13:37:26;4.22;;;3.40;;
75311;SDS011;63906;55.686;37.532;2023-08-06T13:42:26;3.85;;;3.55;;
75311;SDS011;63906;55.686;37.532;2023-08-06T13:47:27;4.55;;;3.40;;
75311;SDS011;63906;55.686;37.532;2023-08-06T13:52:27;4.10;;;3.70;;
75311;SDS011;63906;55.686;37.532;2023-08-06T13:57:28;4.47;;;4.07;;
75311;SDS011;63906;55.686;37.532;2023-08-06T14:02:28;4.25;;;3.47;;
75311;SDS011;63906;55.686;37.532;2023-08-06T14:07:29;4.90;;;4.40;;
75311;SDS011;63906;55.686;37.532;2023-08-06T14:12:30;5.38;;;4.30;;
75311;SDS011;63906;55.686;37.532;2023-08-06T14:17:31;4.57;;;4.15;;
75311;SDS011;63906;55.686;37.532;2023-08-06T14:22:31;4.85;;;3.95;;
75311;SDS011;63906;55.686;37.532;2023-08-06T14:27:32;5.95;;;4.90;;
75311;SDS011;63906;55.686;37.532;2023-08-06T14:32:32;6.43;;;4.63;;
75311;SDS011;63906;55.686;37.532;2023-08-06T14:37:36;5.57;;;4.45;;
75311;SDS011;63906;55.686;37.532;2023-08-06T14:42:36;3.97;;;3.65;;
75311;SDS011;63906;55.686;37.532;2023-08-06T14:47:37;5.50;;;4.82;;
75311;SDS011;63906;55.686;37.532;2023-08-06T14:52:37;6.20;;;5.07;;
75311;SDS011;63906;55.686;37.532;2023-08-06T14:57:40;4.97;;;4.47;;
75311;SDS011;63906;55.686;37.532;2023-08-06T15:02:41;5.38;;;4.88;;
75311;SDS011;63906;55.686;37.532;2023-08-06T15:07:41;5.05;;;4.55;;
75311;SDS011;63906;55.686;37.532;2023-08-06T15:12:42;4.93;;;4.43;;
75311;SDS011;63906;55.686;37.532;2023-08-06T15:17:42;5.20;;;4.70;;
75311;SDS011;63906;55.686;37.532;2023-08-06T15:22:45;4.60;;;4.20;;
75311;SDS011;63906;55.686;37.532;2023-08-06T15:27:46;6.63;;;4.80;;
75311;SDS011;63906;55.686;37.532;2023-08-06T15:32:46;6.63;;;4.95;;
75311;SDS011;63906;55.686;37.532;2023-08-06T15:37:47;6.30;;;5.13;;
75311;SDS011;63906;55.686;37.532;2023-08-06T15:42:48;6.90;;;4.78;;
75311;SDS011;63906;55.686;37.532;2023-08-06T15:47:49;5.40;;;4.90;;
75311;SDS011;63906;55.686;37.532;2023-08-06T15:52:50;5.15;;;4.65;;
75311;SDS011;63906;55.686;37.532;2023-08-06T15:57:50;5.40;;;4.90;;
75311;SDS011;63906;55.686;37.532;2023-08-06T16:02:51;6.70;;;4.93;;
75311;SDS011;63906;55.686;37.532;2023-08-06T16:07:52;4.95;;;4.35;;
75311;SDS011;63906;55.686;37.532;2023-08-06T16:12:52;6.13;;;4.50;;
75311;SDS011;63906;55.686;37.532;2023-08-06T16:17:55;5.30;;;4.28;;
75311;SDS011;63906;55.686;37.532;2023-08-06T16:27:56;6.13;;;4.40;;
75311;SDS011;63906;55.686;37.532;2023-08-06T16:32:56;6.40;;;5.05;;
75311;SDS011;63906;55.686;37.532;2023-08-06T16:37:57;8.45;;;5.57;;
75311;SDS011;63906;55.686;37.532;2023-08-06T16:42:59;5.20;;;4.70;;
75311;SDS011;63906;55.686;37.532;2023-08-06T16:52:59;4.63;;;4.10;;
75311;SDS011;63906;55.686;37.532;2023-08-06T17:03:00;7.13;;;5.13;;
75311;SDS011;63906;55.686;37.532;2023-08-06T17:08:02;6.93;;;5.78;;
75311;SDS011;63906;55.686;37.532;2023-08-06T17:13:02;6.07;;;5.47;;
75311;SDS011;63906;55.686;37.532;2023-08-06T17:18:04;6.28;;;5.68;;
75311;SDS011;63906;55.686;37.532;2023-08-06T17:23:04;6.10;;;5.50;;
75311;SDS011;63906;55.686;37.532;2023-08-06T17:28:05;6.05;;;5.53;;
75311;SDS011;63906;55.686;37.532;2023-08-06T17:33:06;5.45;;;4.95;;
75311;SDS011;63906;55.686;37.532;2023-08-06T17:38:10;5.45;;;4.95;;
75311;SDS011;63906;55.686;37.532;2023-08-06T17:43:11;6.05;;;5.50;;
75311;SDS011;63906;55.686;37.532;2023-08-06T17:48:11;6.00;;;4.97;;
75311;SDS011;63906;55.686;37.532;2023-08-06T17:53:18;5.55;;;5.03;;
75311;SDS011;63906;55.686;37.532;2023-08-06T17:58:19;5.00;;;4.60;;
75311;SDS011;63906;55.686;37.532;2023-08-06T18:03:19;4.80;;;4.40;;
75311;SDS011;63906;55.686;37.532;2023-08-06T18:08:19;5.75;;;5.15;;
75311;SDS011;63906;55.686;37.532;2023-08-06T18:13:23;5.82;;;5.10;;
75311;SDS011;63906;55.686;37.532;2023-08-06T18:18:24;6.43;;;5.30;;
75311;SDS011;63906;55.686;37.532;2023-08-06T18:23:25;5.30;;;4.80;;
75311;SDS011;63906;55.686;37.532;2023-08-06T18:28:26;6.00;;;4.40;;
75311;SDS011;63906;55.686;37.532;2023-08-06T18:33:26;5.20;;;4.70;;
75311;SDS011;63906;55.686;37.532;2023-08-06T18:38:27;5.00;;;4.50;;
75311;SDS011;63906;55.686;37.532;2023-08-06T18:43:30;4.18;;;3.78;;
75311;SDS011;63906;55.686;37.532;2023-08-06T18:48:30;4.30;;;3.85;;
75311;SDS011;63906;55.686;37.532;2023-08-06T18:53:31;3.65;;;3.35;;
75311;SDS011;63906;55.686;37.532;2023-08-06T18:58:35;4.57;;;4.03;;
75311;SDS011;63906;55.686;37.532;2023-08-06T19:03:35;4.07;;;3.67;;
75311;SDS011;63906;55.686;37.532;2023-08-06T19:08:36;4.30;;;3.70;;
75311;SDS011;63906;55.686;37.532;2023-08-06T19:13:39;3.95;;;3.53;;
75311;SDS011;63906;55.686;37.532;2023-08-06T19:18:39;4.38;;;3.95;;
75311;SDS011;63906;55.686;37.532;2023-08-06T19:23:40;4.80;;;4.15;;
75311;SDS011;63906;55.686;37.532;2023-08-06T19:28:40;5.25;;;4.32;;
75311;SDS011;63906;55.686;37.532;2023-08-06T19:33:41;4.85;;;4.40;;
75311;SDS011;63906;55.686;37.532;2023-08-06T19:38:42;4.20;;;3.80;;
75311;SDS011;63906;55.686;37.532;2023-08-06T19:43:42;6.90;;;4.90;;
75311;SDS011;63906;55.686;37.532;2023-08-06T19:48:43;7.38;;;4.53;;
75311;SDS011;63906;55.686;37.532;2023-08-06T19:53:43;5.32;;;4.65;;
75311;SDS011;63906;55.686;37.532;2023-08-06T19:58:44;6.05;;;4.55;;
75311;SDS011;63906;55.686;37.532;2023-08-06T20:03:45;6.35;;;4.60;;
75311;SDS011;63906;55.686;37.532;2023-08-06T20:08:45;5.25;;;4.75;;
75311;SDS011;63906;55.686;37.532;2023-08-06T20:13:46;6.28;;;5.05;;
75311;SDS011;63906;55.686;37.532;2023-08-06T20:18:46;6.05;;;5.20;;
75311;SDS011;63906;55.686;37.532;2023-08-06T20:23:47;5.78;;;4.95;;
75311;SDS011;63906;55.686;37.532;2023-08-06T20:28:47;6.03;;;5.10;;
75311;SDS011;63906;55.686;37.532;2023-08-06T20:33:48;7.15;;;5.40;;
75311;SDS011;63906;55.686;37.532;2023-08-06T20:38:49;5.63;;;4.70;;
75311;SDS011;63906;55.686;37.532;2023-08-06T20:43:49;7.20;;;4.72;;
75311;SDS011;63906;55.686;37.532;2023-08-06T20:48:50;5.07;;;4.10;;
75311;SDS011;63906;55.686;37.532;2023-08-06T20:53:50;5.55;;;4.82;;
75311;SDS011;63906;55.686;37.532;2023-08-06T20:58:51;5.68;;;4.72;;
75311;SDS011;63906;55.686;37.532;2023-08-06T21:03:51;5.13;;;4.15;;
75311;SDS011;63906;55.686;37.532;2023-08-06T21:08:52;6.53;;;4.05;;
75311;SDS011;63906;55.686;37.532;2023-08-06T21:13:52;7.25;;;4.32;;
75311;SDS011;63906;55.686;37.532;2023-08-06T21:18:53;6.30;;;4.57;;
75311;SDS011;63906;55.686;37.532;2023-08-06T21:23:53;5.68;;;4.68;;
75311;SDS011;63906;55.686;37.532;2023-08-06T21:28:54;5.47;;;4.22;;
75311;SDS011;63906;55.686;37.532;2023-08-06T21:33:54;6.57;;;4.00;;
75311;SDS011;63906;55.686;37.532;2023-08-06T21:38:55;5.68;;;4.05;;
75311;SDS011;63906;55.686;37.532;2023-08-06T21:43:55;5.90;;;4.40;;
75311;SDS011;63906;55.686;37.532;2023-08-06T21:48:56;8.13;;;4.15;;
75311;SDS011;63906;55.686;37.532;2023-08-06T21:53:59;6.22;;;4.53;;
75311;SDS011;63906;55.686;37.532;2023-08-06T21:59:00;4.55;;;4.13;;
75311;SDS011;63906;55.686;37.532;2023-08-06T22:04:00;4.57;;;4.18;;
75311;SDS011;63906;55.686;37.532;2023-08-06T22:09:01;5.13;;;3.75;;
75311;SDS011;63906;55.686;37.532;2023-08-06T22:14:01;4.65;;;3.28;;
75311;SDS011;63906;55.686;37.532;2023-08-06T22:19:02;5.75;;;3.72;;
75311;SDS011;63906;55.686;37.532;2023-08-06T22:24:02;5.10;;;3.80;;
75311;SDS011;63906;55.686;37.532;2023-08-06T22:29:03;4.57;;;3.90;;
75311;SDS011;63906;55.686;37.532;2023-08-06T22:34:03;6.13;;;3.67;;
75311;SDS011;63906;55.686;37.532;2023-08-06T22:39:04;5.97;;;4.13;;
75311;SDS011;63906;55.686;37.532;2023-08-06T22:44:04;6.05;;;4.10;;
75311;SDS011;63906;55.686;37.532;2023-08-06T22:49:05;4.70;;;3.77;;
75311;SDS011;63906;55.686;37.532;2023-08-06T22:54:05;5.45;;;4.20;;
75311;SDS011;63906;55.686;37.532;2023-08-06T22:59:06;5.22;;;4.50;;
75311;SDS011;63906;55.686;37.532;2023-08-06T23:04:06;5.80;;;4.53;;
75311;SDS011;63906;55.686;37.532;2023-08-06T23:09:07;7.47;;;4.63;;
75311;SDS011;63906;55.686;37.532;2023-08-06T23:14:07;5.03;;;3.70;;
75311;SDS011;63906;55.686;37.532;2023-08-06T23:19:08;4.23;;;3.73;;
75311;SDS011;63906;55.686;37.532;2023-08-06T23:24:08;4.25;;;3.67;;
75311;SDS011;63906;55.686;37.532;2023-08-06T23:29:08;5.30;;;3.67;;
75311;SDS011;63906;55.686;37.532;2023-08-06T23:34:09;4.32;;;3.67;;
75311;SDS011;63906;55.686;37.532;2023-08-06T23:39:09;4.60;;;3.80;;
75311;SDS011;63906;55.686;37.532;2023-08-06T23:44:11;4.20;;;3.80;;
75311;SDS011;63906;55.686;37.532;2023-08-06T23:49:12;4.65;;;3.90;;
75311;SDS011;63906;55.686;37.532;2023-08-06T23:54:12;4.50;;;4.10;;
75311;SDS011;63906;55.686;37.532;2023-08-06T23:59:13;3.50;;;3.20;;
